sensor_id;sensor_type;location;lat;lon;timestamp;pressure;altitude;pressure_sealevel;temperature;humidity
12666;BME280;58531;59.050;17.416;2023-05-20T00:01:32;102580.88;;;4.23;100.00
12666;BME280;58531;59.050;17.416;2023-05-20T00:03:59;102578.66;;;4.25;100.00
12666;BME280;58531;59.050;17.416;2023-05-20T00:06:26;102581.56;;;4.20;100.00
12666;BME280;58531;59.050;17.416;2023-05-20T00:08:52;102585.22;;;4.15;100.00
12666;BME280;58531;59.050;17.416;2023-05-20T00:11:20;102577.22;;;4.12;100.00
12666;BME280;58531;59.050;17.416;2023-05-20T00:13:48;102577.53;;;4.10;100.00
12666;BME280;58531;59.050;17.416;2023-05-20T00:16:14;102578.25;;;4.07;100.00
12666;BME280;58531;59.050;17.416;2023-05-20T00:18:41;102577.41;;;4.03;100.00
12666;BME280;58531;59.050;17.416;2023-05-20T00:21:08;102576.28;;;4.04;100.00
12666;BME280;58531;59.050;17.416;2023-05-20T00:23:35;102577.03;;;4.05;100.00
12666;BME280;58531;59.050;17.416;2023-05-20T00:26:02;102578.25;;;4.07;100.00
12666;BME280;58531;59.050;17.416;2023-05-20T00:28:29;102576.63;;;4.03;100.00
12666;BME280;58531;59.050;17.416;2023-05-20T00:30:57;102580.38;;;4.02;100.00
12666;BME280;58531;59.050;17.416;2023-05-20T00:33:24;102574.59;;;3.96;100.00
12666;BME280;58531;59.050;17.416;2023-05-20T00:35:50;102573.63;;;3.89;100.00
12666;BME280;58531;59.050;17.416;2023-05-20T00:38:17;102583.63;;;3.80;100.00
12666;BME280;58531;59.050;17.416;2023-05-20T00:40:44;102577.47;;;3.76;100.00
12666;BME280;58531;59.050;17.416;2023-05-20T00:43:11;102577.91;;;3.78;100.00
12666;BME280;58531;59.050;17.416;2023-05-20T00:45:38;102582.16;;;3.82;100.00
12666;BME280;58531;59.050;17.416;2023-05-20T00:48:07;102584.81;;;3.82;100.00
12666;BME280;58531;59.050;17.416;2023-05-20T00:50:34;102584.81;;;3.82;100.00
12666;BME280;58531;59.050;17.416;2023-05-20T00:53:00;102582.78;;;3.76;100.00
12666;BME280;58531;59.050;17.416;2023-05-20T00:55:27;102572.44;;;3.71;100.00
12666;BME280;58531;59.050;17.416;2023-05-20T00:57:54;102576.19;;;3.70;100.00
12666;BME280;58531;59.050;17.416;2023-05-20T01:00:21;102580.81;;;3.73;100.00
12666;BME280;58531;59.050;17.416;2023-05-20T01:02:48;102585.41;;;3.76;100.00
12666;BME280;58531;59.050;17.416;2023-05-20T01:05:16;102583.88;;;3.75;100.00
12666;BME280;58531;59.050;17.416;2023-05-20T01:07:43;102581.38;;;3.66;100.00
12666;BME280;58531;59.050;17.416;2023-05-20T01:10:10;102591.94;;;3.66;100.00
12666;BME280;58531;59.050;17.416;2023-05-20T01:12:40;102586.16;;;3.61;100.00
12666;BME280;58531;59.050;17.416;2023-05-20T01:15:10;102576.63;;;3.56;100.00
12666;BME280;58531;59.050;17.416;2023-05-20T01:17:39;102577.63;;;3.52;100.00
12666;BME280;58531;59.050;17.416;2023-05-20T01:20:10;102585.47;;;3.48;100.00
12666;BME280;58531;59.050;17.416;2023-05-20T01:22:46;102579.41;;;3.48;100.00
12666;BME280;58531;59.050;17.416;2023-05-20T01:25:12;102580.88;;;3.46;100.00
12666;BME280;58531;59.050;17.416;2023-05-20T01:27:39;102587.56;;;3.43;100.00
12666;BME280;58531;59.050;17.416;2023-05-20T01:30:07;102585.78;;;3.47;100.00
12666;BME280;58531;59.050;17.416;2023-05-20T01:32:37;102583.94;;;3.47;100.00
12666;BME280;58531;59.050;17.416;2023-05-20T01:35:06;102583.34;;;3.54;100.00
12666;BME280;58531;59.050;17.416;2023-05-20T01:37:34;102585.31;;;3.57;100.00
12666;BME280;58531;59.050;17.416;2023-05-20T01:40:04;102586.84;;;3.58;100.00
12666;BME280;58531;59.050;17.416;2023-05-20T01:42:32;102583.84;;;3.59;100.00
12666;BME280;58531;59.050;17.416;2023-05-20T01:45:01;102583.09;;;3.59;100.00
12666;BME280;58531;59.050;17.416;2023-05-20T01:47:28;102585.81;;;3.62;100.00
12666;BME280;58531;59.050;17.416;2023-05-20T01:49:55;102590.41;;;3.65;100.00
12666;BME280;58531;59.050;17.416;2023-05-20T01:52:22;102584.44;;;3.68;100.00
12666;BME280;58531;59.050;17.416;2023-05-20T01:54:49;102583.88;;;3.75;100.00
12666;BME280;58531;59.050;17.416;2023-05-20T01:57:17;102584.31;;;3.77;100.00
12666;BME280;58531;59.050;17.416;2023-05-20T01:59:44;102586.94;;;3.77;100.00
12666;BME280;58531;59.050;17.416;2023-05-20T02:02:11;102591.03;;;3.74;100.00
12666;BME280;58531;59.050;17.416;2023-05-20T02:04:38;102592.06;;;3.70;100.00
12666;BME280;58531;59.050;17.416;2023-05-20T02:07:06;102587.88;;;3.69;100.00
12666;BME280;58531;59.050;17.416;2023-05-20T02:09:33;102590.59;;;3.72;100.00
12666;BME280;58531;59.050;17.416;2023-05-20T02:12:00;102591.81;;;3.75;100.00
12666;BME280;58531;59.050;17.416;2023-05-20T02:14:28;102596.41;;;3.78;100.00
12666;BME280;58531;59.050;17.416;2023-05-20T02:16:55;102594.53;;;3.78;100.00
12666;BME280;58531;59.050;17.416;2023-05-20T02:19:22;102597.94;;;3.79;100.00
12666;BME280;58531;59.050;17.416;2023-05-20T02:21:49;102594.63;;;3.82;100.00
12666;BME280;58531;59.050;17.416;2023-05-20T02:24:16;102598.94;;;3.90;100.00
12666;BME280;58531;59.050;17.416;2023-05-20T02:26:45;102601.78;;;3.97;100.00
12666;BME280;58531;59.050;17.416;2023-05-20T02:29:13;102607.22;;;4.04;100.00
12666;BME280;58531;59.050;17.416;2023-05-20T02:31:41;102603.66;;;4.12;100.00
12666;BME280;58531;59.050;17.416;2023-05-20T02:34:08;102599.22;;;4.16;100.00
12666;BME280;58531;59.050;17.416;2023-05-20T02:36:35;102603.56;;;4.24;100.00
12666;BME280;58531;59.050;17.416;2023-05-20T02:39:02;102600.72;;;4.32;100.00
12666;BME280;58531;59.050;17.416;2023-05-20T02:41:28;102602.06;;;4.42;100.00
12666;BME280;58531;59.050;17.416;2023-05-20T02:43:55;102612.09;;;4.52;100.00
12666;BME280;58531;59.050;17.416;2023-05-20T02:46:22;102606.22;;;4.58;100.00
12666;BME280;58531;59.050;17.416;2023-05-20T02:48:50;102601.56;;;4.70;100.00
12666;BME280;58531;59.050;17.416;2023-05-20T02:51:17;102605.31;;;4.88;100.00
12666;BME280;58531;59.050;17.416;2023-05-20T02:53:44;102602.72;;;5.49;100.00
12666;BME280;58531;59.050;17.416;2023-05-20T02:56:12;102607.59;;;6.10;100.00
12666;BME280;58531;59.050;17.416;2023-05-20T02:58:39;102610.81;;;6.78;100.00
12666;BME280;58531;59.050;17.416;2023-05-20T03:01:05;102614.88;;;7.71;100.00
12666;BME280;58531;59.050;17.416;2023-05-20T03:03:32;102616.69;;;8.57;100.00
12666;BME280;58531;59.050;17.416;2023-05-20T03:06:00;102629.25;;;8.60;100.00
12666;BME280;58531;59.050;17.416;2023-05-20T03:08:27;102626.91;;;7.98;100.00
12666;BME280;58531;59.050;17.416;2023-05-20T03:10:54;102620.44;;;7.55;100.00
12666;BME280;58531;59.050;17.416;2023-05-20T03:13:21;102618.94;;;7.21;100.00
12666;BME280;58531;59.050;17.416;2023-05-20T03:15:47;102620.50;;;6.93;100.00
12666;BME280;58531;59.050;17.416;2023-05-20T03:18:14;102619.97;;;6.81;100.00
12666;BME280;58531;59.050;17.416;2023-05-20T03:20:41;102625.19;;;6.74;100.00
12666;BME280;58531;59.050;17.416;2023-05-20T03:23:09;102629.06;;;6.80;100.00
12666;BME280;58531;59.050;17.416;2023-05-20T03:25:36;102625.44;;;6.95;100.00
12666;BME280;58531;59.050;17.416;2023-05-20T03:28:03;102636.31;;;7.15;100.00
12666;BME280;58531;59.050;17.416;2023-05-20T03:30:31;102639.22;;;7.36;100.00
12666;BME280;58531;59.050;17.416;2023-05-20T03:32:58;102644.59;;;7.43;100.00
12666;BME280;58531;59.050;17.416;2023-05-20T03:35:27;102639.84;;;7.59;100.00
12666;BME280;58531;59.050;17.416;2023-05-20T03:37:54;102639.91;;;7.66;100.00
12666;BME280;58531;59.050;17.416;2023-05-20T03:40:22;102640.88;;;7.88;100.00
12666;BME280;58531;59.050;17.416;2023-05-20T03:42:49;102640.19;;;7.98;100.00
12666;BME280;58531;59.050;17.416;2023-05-20T03:45:16;102653.44;;;8.34;100.00
12666;BME280;58531;59.050;17.416;2023-05-20T03:47:43;102646.94;;;8.89;100.00
12666;BME280;58531;59.050;17.416;2023-05-20T03:50:10;102655.22;;;10.07;100.00
12666;BME280;58531;59.050;17.416;2023-05-20T03:52:37;102652.72;;;11.85;85.63
12666;BME280;58531;59.050;17.416;2023-05-20T03:55:05;102663.97;;;13.51;74.42
12666;BME280;58531;59.050;17.416;2023-05-20T03:57:34;102666.41;;;15.18;66.78
12666;BME280;58531;59.050;17.416;2023-05-20T04:00:00;102662.66;;;16.15;58.68
12666;BME280;58531;59.050;17.416;2023-05-20T04:02:30;102670.22;;;16.52;57.76
12666;BME280;58531;59.050;17.416;2023-05-20T04:04:56;102671.13;;;17.02;52.68
12666;BME280;58531;59.050;17.416;2023-05-20T04:07:25;102675.63;;;17.83;50.91
12666;BME280;58531;59.050;17.416;2023-05-20T04:09:54;102676.16;;;18.37;46.92
12666;BME280;58531;59.050;17.416;2023-05-20T04:12:21;102676.56;;;18.91;45.28
12666;BME280;58531;59.050;17.416;2023-05-20T04:14:51;102677.81;;;19.99;44.39
12666;BME280;58531;59.050;17.416;2023-05-20T04:17:19;102677.41;;;20.45;43.27
12666;BME280;58531;59.050;17.416;2023-05-20T04:19:46;102676.84;;;19.75;43.03
12666;BME280;58531;59.050;17.416;2023-05-20T04:22:13;102673.47;;;20.28;40.98
12666;BME280;58531;59.050;17.416;2023-05-20T04:24:40;102672.34;;;19.41;42.23
12666;BME280;58531;59.050;17.416;2023-05-20T04:27:06;102667.81;;;18.44;44.85
12666;BME280;58531;59.050;17.416;2023-05-20T04:29:33;102664.41;;;18.74;44.55
12666;BME280;58531;59.050;17.416;2023-05-20T04:32:02;102661.44;;;19.63;43.38
12666;BME280;58531;59.050;17.416;2023-05-20T04:34:29;102668.94;;;21.38;39.49
12666;BME280;58531;59.050;17.416;2023-05-20T04:36:58;102672.72;;;21.32;38.80
12666;BME280;58531;59.050;17.416;2023-05-20T04:39:25;102669.59;;;21.24;38.03
12666;BME280;58531;59.050;17.416;2023-05-20T04:41:52;102671.97;;;22.57;36.61
12666;BME280;58531;59.050;17.416;2023-05-20T04:44:19;102670.16;;;21.93;37.00
12666;BME280;58531;59.050;17.416;2023-05-20T04:46:47;102671.31;;;21.77;37.09
12666;BME280;58531;59.050;17.416;2023-05-20T04:49:15;102669.00;;;21.11;37.56
12666;BME280;58531;59.050;17.416;2023-05-20T04:51:42;102670.69;;;21.82;37.52
12666;BME280;58531;59.050;17.416;2023-05-20T04:54:09;102673.25;;;23.34;34.45
12666;BME280;58531;59.050;17.416;2023-05-20T04:56:36;102672.63;;;23.24;35.04
12666;BME280;58531;59.050;17.416;2023-05-20T04:59:02;102668.50;;;22.33;35.28
12666;BME280;58531;59.050;17.416;2023-05-20T05:01:29;102676.28;;;23.36;33.57
12666;BME280;58531;59.050;17.416;2023-05-20T05:03:56;102686.44;;;23.21;34.26
12666;BME280;58531;59.050;17.416;2023-05-20T05:06:24;102680.59;;;23.28;33.73
12666;BME280;58531;59.050;17.416;2023-05-20T05:08:51;102681.34;;;22.99;33.60
12666;BME280;58531;59.050;17.416;2023-05-20T05:11:18;102682.88;;;22.86;33.47
12666;BME280;58531;59.050;17.416;2023-05-20T05:13:45;102685.22;;;22.64;33.56
12666;BME280;58531;59.050;17.416;2023-05-20T05:16:12;102687.53;;;21.95;35.42
12666;BME280;58531;59.050;17.416;2023-05-20T05:18:39;102685.59;;;23.00;33.25
12666;BME280;58531;59.050;17.416;2023-05-20T05:21:05;102688.00;;;23.42;32.30
12666;BME280;58531;59.050;17.416;2023-05-20T05:23:34;102690.31;;;23.98;31.66
12666;BME280;58531;59.050;17.416;2023-05-20T05:26:00;102691.94;;;23.90;31.12
12666;BME280;58531;59.050;17.416;2023-05-20T05:28:27;102693.72;;;24.12;30.65
12666;BME280;58531;59.050;17.416;2023-05-20T05:30:55;102688.53;;;23.95;31.01
12666;BME280;58531;59.050;17.416;2023-05-20T05:33:22;102693.97;;;24.54;29.48
12666;BME280;58531;59.050;17.416;2023-05-20T05:35:49;102693.63;;;25.23;28.71
12666;BME280;58531;59.050;17.416;2023-05-20T05:38:16;102692.22;;;24.51;29.33
12666;BME280;58531;59.050;17.416;2023-05-20T05:40:44;102690.47;;;24.79;29.27
12666;BME280;58531;59.050;17.416;2023-05-20T05:43:11;102695.72;;;25.39;28.75
12666;BME280;58531;59.050;17.416;2023-05-20T05:45:38;102690.41;;;25.61;27.84
12666;BME280;58531;59.050;17.416;2023-05-20T05:48:04;102689.59;;;24.42;30.20
12666;BME280;58531;59.050;17.416;2023-05-20T05:50:31;102686.94;;;24.99;30.41
12666;BME280;58531;59.050;17.416;2023-05-20T05:52:58;102695.78;;;24.88;29.11
12666;BME280;58531;59.050;17.416;2023-05-20T05:55:25;102695.22;;;24.53;29.31
12666;BME280;58531;59.050;17.416;2023-05-20T05:57:53;102690.59;;;24.90;29.80
12666;BME280;58531;59.050;17.416;2023-05-20T06:00:20;102693.13;;;25.24;28.72
12666;BME280;58531;59.050;17.416;2023-05-20T06:02:46;102696.56;;;24.63;30.18
12666;BME280;58531;59.050;17.416;2023-05-20T06:05:13;102708.28;;;25.20;28.90
12666;BME280;58531;59.050;17.416;2023-05-20T06:07:40;102704.19;;;25.41;26.93
12666;BME280;58531;59.050;17.416;2023-05-20T06:10:08;102712.94;;;25.81;28.83
12666;BME280;58531;59.050;17.416;2023-05-20T06:12:35;102715.56;;;25.65;27.51
12666;BME280;58531;59.050;17.416;2023-05-20T06:15:03;102716.38;;;26.35;26.99
12666;BME280;58531;59.050;17.416;2023-05-20T06:17:31;102715.72;;;26.45;26.31
12666;BME280;58531;59.050;17.416;2023-05-20T06:19:58;102718.84;;;26.22;26.61
12666;BME280;58531;59.050;17.416;2023-05-20T06:22:24;102719.09;;;25.09;28.15
12666;BME280;58531;59.050;17.416;2023-05-20T06:24:52;102716.53;;;25.00;28.18
12666;BME280;58531;59.050;17.416;2023-05-20T06:27:20;102706.59;;;25.28;27.10
12666;BME280;58531;59.050;17.416;2023-05-20T06:29:47;102695.28;;;24.39;27.65
12666;BME280;58531;59.050;17.416;2023-05-20T06:32:15;102709.16;;;25.79;27.19
12666;BME280;58531;59.050;17.416;2023-05-20T06:34:42;102706.13;;;25.35;26.96
12666;BME280;58531;59.050;17.416;2023-05-20T06:37:09;102698.84;;;24.96;26.68
12666;BME280;58531;59.050;17.416;2023-05-20T06:39:36;102708.66;;;23.97;29.35
12666;BME280;58531;59.050;17.416;2023-05-20T06:42:03;102703.88;;;24.32;28.97
12666;BME280;58531;59.050;17.416;2023-05-20T06:44:30;102712.69;;;24.61;27.95
12666;BME280;58531;59.050;17.416;2023-05-20T06:46:57;102716.16;;;25.43;26.71
12666;BME280;58531;59.050;17.416;2023-05-20T06:49:25;102716.91;;;24.42;27.01
12666;BME280;58531;59.050;17.416;2023-05-20T06:51:52;102714.47;;;24.04;29.14
12666;BME280;58531;59.050;17.416;2023-05-20T06:54:19;102721.34;;;25.78;27.82
12666;BME280;58531;59.050;17.416;2023-05-20T06:56:46;102715.81;;;25.30;27.44
12666;BME280;58531;59.050;17.416;2023-05-20T06:59:13;102725.97;;;24.74;28.29
12666;BME280;58531;59.050;17.416;2023-05-20T07:01:39;102721.41;;;24.45;27.26
12666;BME280;58531;59.050;17.416;2023-05-20T07:04:06;102722.56;;;23.30;27.77
12666;BME280;58531;59.050;17.416;2023-05-20T07:06:34;102715.91;;;22.50;30.68
12666;BME280;58531;59.050;17.416;2023-05-20T07:09:01;102721.50;;;22.00;29.63
12666;BME280;58531;59.050;17.416;2023-05-20T07:11:28;102712.56;;;21.44;31.45
12666;BME280;58531;59.050;17.416;2023-05-20T07:13:55;102709.81;;;20.75;33.15
12666;BME280;58531;59.050;17.416;2023-05-20T07:16:22;102711.22;;;21.39;33.37
12666;BME280;58531;59.050;17.416;2023-05-20T07:18:48;102716.44;;;21.01;32.58
12666;BME280;58531;59.050;17.416;2023-05-20T07:21:15;102716.19;;;21.41;31.09
12666;BME280;58531;59.050;17.416;2023-05-20T07:23:43;102711.97;;;22.04;32.19
12666;BME280;58531;59.050;17.416;2023-05-20T07:26:10;102714.75;;;22.42;32.88
12666;BME280;58531;59.050;17.416;2023-05-20T07:28:37;102715.41;;;23.33;30.94
12666;BME280;58531;59.050;17.416;2023-05-20T07:31:04;102726.94;;;22.99;29.10
12666;BME280;58531;59.050;17.416;2023-05-20T07:33:31;102716.59;;;22.36;28.99
12666;BME280;58531;59.050;17.416;2023-05-20T07:35:58;102720.13;;;22.51;29.12
12666;BME280;58531;59.050;17.416;2023-05-20T07:38:25;102719.63;;;22.38;32.74
12666;BME280;58531;59.050;17.416;2023-05-20T07:40:53;102706.72;;;21.68;30.13
12666;BME280;58531;59.050;17.416;2023-05-20T07:43:20;102705.72;;;21.07;32.69
12666;BME280;58531;59.050;17.416;2023-05-20T07:45:48;102701.06;;;21.48;32.93
12666;BME280;58531;59.050;17.416;2023-05-20T07:48:15;102706.59;;;21.95;32.74
12666;BME280;58531;59.050;17.416;2023-05-20T07:50:44;102704.94;;;21.56;33.56
12666;BME280;58531;59.050;17.416;2023-05-20T07:53:11;102703.72;;;21.66;33.54
12666;BME280;58531;59.050;17.416;2023-05-20T07:55:38;102701.47;;;21.65;32.66
12666;BME280;58531;59.050;17.416;2023-05-20T07:58:06;102700.16;;;20.92;33.23
12666;BME280;58531;59.050;17.416;2023-05-20T08:00:33;102700.00;;;20.78;33.13
12666;BME280;58531;59.050;17.416;2023-05-20T08:03:00;102707.53;;;20.29;35.47
12666;BME280;58531;59.050;17.416;2023-05-20T08:05:27;102690.81;;;20.30;35.16
12666;BME280;58531;59.050;17.416;2023-05-20T08:07:53;102699.16;;;19.88;35.00
12666;BME280;58531;59.050;17.416;2023-05-20T08:10:20;102699.03;;;19.52;35.02
12666;BME280;58531;59.050;17.416;2023-05-20T08:12:47;102697.97;;;19.19;36.35
12666;BME280;58531;59.050;17.416;2023-05-20T08:15:15;102705.28;;;19.70;37.20
12666;BME280;58531;59.050;17.416;2023-05-20T08:17:42;102705.53;;;19.63;37.17
12666;BME280;58531;59.050;17.416;2023-05-20T08:20:10;102708.19;;;19.45;35.22
12666;BME280;58531;59.050;17.416;2023-05-20T08:22:38;102704.09;;;19.41;35.55
12666;BME280;58531;59.050;17.416;2023-05-20T08:25:07;102703.63;;;19.33;35.19
12666;BME280;58531;59.050;17.416;2023-05-20T08:27:34;102696.97;;;18.83;36.01
12666;BME280;58531;59.050;17.416;2023-05-20T08:30:01;102689.97;;;19.15;36.21
12666;BME280;58531;59.050;17.416;2023-05-20T08:32:29;102695.44;;;19.24;35.54
12666;BME280;58531;59.050;17.416;2023-05-20T08:34:57;102703.75;;;18.87;35.67
12666;BME280;58531;59.050;17.416;2023-05-20T08:37:26;102700.22;;;18.99;34.66
12666;BME280;58531;59.050;17.416;2023-05-20T08:39:52;102713.97;;;19.26;34.92
12666;BME280;58531;59.050;17.416;2023-05-20T08:42:21;102711.44;;;19.10;33.76
12666;BME280;58531;59.050;17.416;2023-05-20T08:44:49;102706.97;;;18.95;32.18
12666;BME280;58531;59.050;17.416;2023-05-20T08:47:17;102709.06;;;18.69;33.37
12666;BME280;58531;59.050;17.416;2023-05-20T08:49:46;102708.19;;;18.72;33.29
12666;BME280;58531;59.050;17.416;2023-05-20T08:52:15;102704.91;;;18.99;33.64
12666;BME280;58531;59.050;17.416;2023-05-20T08:54:44;102708.13;;;18.85;32.52
12666;BME280;58531;59.050;17.416;2023-05-20T08:57:11;102705.25;;;18.67;36.83
12666;BME280;58531;59.050;17.416;2023-05-20T08:59:41;102703.19;;;19.13;34.24
12666;BME280;58531;59.050;17.416;2023-05-20T09:02:09;102711.75;;;18.91;33.84
12666;BME280;58531;59.050;17.416;2023-05-20T09:04:36;102707.88;;;18.92;36.02
12666;BME280;58531;59.050;17.416;2023-05-20T09:07:05;102707.41;;;19.14;35.00
12666;BME280;58531;59.050;17.416;2023-05-20T09:09:32;102701.88;;;19.18;32.05
12666;BME280;58531;59.050;17.416;2023-05-20T09:11:59;102702.44;;;19.13;33.34
12666;BME280;58531;59.050;17.416;2023-05-20T09:14:27;102700.97;;;19.42;36.62
12666;BME280;58531;59.050;17.416;2023-05-20T09:16:55;102698.94;;;19.73;32.93
12666;BME280;58531;59.050;17.416;2023-05-20T09:19:22;102695.38;;;19.85;34.38
12666;BME280;58531;59.050;17.416;2023-05-20T09:21:51;102697.66;;;19.87;32.66
12666;BME280;58531;59.050;17.416;2023-05-20T09:24:22;102702.47;;;19.43;32.65
12666;BME280;58531;59.050;17.416;2023-05-20T09:26:49;102701.13;;;19.48;35.43
12666;BME280;58531;59.050;17.416;2023-05-20T09:29:16;102692.63;;;19.76;32.29
12666;BME280;58531;59.050;17.416;2023-05-20T09:31:44;102692.97;;;19.87;33.06
12666;BME280;58531;59.050;17.416;2023-05-20T09:34:11;102688.31;;;19.88;31.13
12666;BME280;58531;59.050;17.416;2023-05-20T09:36:38;102693.09;;;19.75;29.08
12666;BME280;58531;59.050;17.416;2023-05-20T09:39:08;102691.53;;;19.25;29.39
12666;BME280;58531;59.050;17.416;2023-05-20T09:41:46;102703.66;;;19.42;30.11
12666;BME280;58531;59.050;17.416;2023-05-20T09:44:15;102691.13;;;19.75;31.02
12666;BME280;58531;59.050;17.416;2023-05-20T09:46:43;102686.91;;;19.74;31.92
12666;BME280;58531;59.050;17.416;2023-05-20T09:49:12;102694.50;;;19.49;34.91
12666;BME280;58531;59.050;17.416;2023-05-20T09:51:40;102695.44;;;19.55;30.25
12666;BME280;58531;59.050;17.416;2023-05-20T09:54:11;102690.16;;;19.51;28.08
12666;BME280;58531;59.050;17.416;2023-05-20T09:56:40;102689.63;;;19.35;32.00
12666;BME280;58531;59.050;17.416;2023-05-20T09:59:08;102679.59;;;18.93;28.15
12666;BME280;58531;59.050;17.416;2023-05-20T10:01:36;102678.81;;;18.71;30.57
12666;BME280;58531;59.050;17.416;2023-05-20T10:04:05;102685.44;;;18.70;31.16
12666;BME280;58531;59.050;17.416;2023-05-20T10:07:04;102681.47;;;18.62;30.99
12666;BME280;58531;59.050;17.416;2023-05-20T10:09:46;102679.75;;;18.21;29.78
12666;BME280;58531;59.050;17.416;2023-05-20T10:12:25;102684.41;;;18.21;31.14
12666;BME280;58531;59.050;17.416;2023-05-20T10:14:59;102679.19;;;18.39;33.15
12666;BME280;58531;59.050;17.416;2023-05-20T10:17:36;102680.28;;;18.29;34.64
12666;BME280;58531;59.050;17.416;2023-05-20T10:20:06;102688.53;;;18.59;34.59
12666;BME280;58531;59.050;17.416;2023-05-20T10:22:36;102678.81;;;18.71;34.20
12666;BME280;58531;59.050;17.416;2023-05-20T10:25:04;102678.72;;;18.53;32.89
12666;BME280;58531;59.050;17.416;2023-05-20T10:27:43;102678.00;;;18.83;32.25
12666;BME280;58531;59.050;17.416;2023-05-20T10:30:16;102670.78;;;18.80;33.04
12666;BME280;58531;59.050;17.416;2023-05-20T10:32:52;102672.91;;;18.85;33.19
12666;BME280;58531;59.050;17.416;2023-05-20T10:35:21;102664.69;;;19.18;33.38
12666;BME280;58531;59.050;17.416;2023-05-20T10:37:50;102673.63;;;19.58;34.30
12666;BME280;58531;59.050;17.416;2023-05-20T10:40:18;102660.66;;;19.53;32.45
12666;BME280;58531;59.050;17.416;2023-05-20T10:42:47;102660.09;;;19.76;33.34
12666;BME280;58531;59.050;17.416;2023-05-20T10:45:24;102665.44;;;19.49;33.10
12666;BME280;58531;59.050;17.416;2023-05-20T10:47:55;102659.53;;;19.33;32.88
12666;BME280;58531;59.050;17.416;2023-05-20T10:50:26;102659.66;;;19.08;33.87
12666;BME280;58531;59.050;17.416;2023-05-20T10:52:53;102654.69;;;19.28;33.79
12666;BME280;58531;59.050;17.416;2023-05-20T10:55:21;102657.56;;;19.33;35.06
12666;BME280;58531;59.050;17.416;2023-05-20T10:57:50;102652.41;;;19.26;35.36
12666;BME280;58531;59.050;17.416;2023-05-20T11:00:17;102642.56;;;19.50;35.43
12666;BME280;58531;59.050;17.416;2023-05-20T11:02:46;102646.22;;;19.56;33.05
12666;BME280;58531;59.050;17.416;2023-05-20T11:05:15;102653.31;;;19.72;33.73
12666;BME280;58531;59.050;17.416;2023-05-20T11:07:43;102647.28;;;19.68;32.16
12666;BME280;58531;59.050;17.416;2023-05-20T11:10:10;102647.78;;;19.84;33.94
12666;BME280;58531;59.050;17.416;2023-05-20T11:12:37;102645.91;;;19.63;31.66
12666;BME280;58531;59.050;17.416;2023-05-20T11:15:07;102648.81;;;19.08;31.19
12666;BME280;58531;59.050;17.416;2023-05-20T11:17:36;102636.09;;;19.17;32.09
12666;BME280;58531;59.050;17.416;2023-05-20T11:20:04;102626.16;;;19.54;33.61
12666;BME280;58531;59.050;17.416;2023-05-20T11:22:31;102633.31;;;19.87;34.69
12666;BME280;58531;59.050;17.416;2023-05-20T11:24:58;102620.28;;;19.46;30.91
12666;BME280;58531;59.050;17.416;2023-05-20T11:27:25;102622.72;;;19.62;33.70
12666;BME280;58531;59.050;17.416;2023-05-20T11:29:52;102625.94;;;19.79;31.56
12666;BME280;58531;59.050;17.416;2023-05-20T11:32:20;102620.59;;;19.57;32.33
12666;BME280;58531;59.050;17.416;2023-05-20T11:34:50;102613.97;;;19.49;32.20
12666;BME280;58531;59.050;17.416;2023-05-20T11:37:17;102617.31;;;19.23;31.89
12666;BME280;58531;59.050;17.416;2023-05-20T11:39:44;102617.50;;;19.28;31.16
12666;BME280;58531;59.050;17.416;2023-05-20T11:42:13;102618.94;;;18.90;32.50
12666;BME280;58531;59.050;17.416;2023-05-20T11:44:42;102619.03;;;18.56;33.01
12666;BME280;58531;59.050;17.416;2023-05-20T11:47:09;102620.91;;;18.25;35.59
12666;BME280;58531;59.050;17.416;2023-05-20T11:49:39;102616.78;;;18.21;33.10
12666;BME280;58531;59.050;17.416;2023-05-20T11:52:08;102622.69;;;18.07;32.61
12666;BME280;58531;59.050;17.416;2023-05-20T11:54:35;102615.63;;;17.76;32.88
12666;BME280;58531;59.050;17.416;2023-05-20T11:57:02;102614.97;;;17.72;35.28
12666;BME280;58531;59.050;17.416;2023-05-20T11:59:28;102612.06;;;17.66;35.06
12666;BME280;58531;59.050;17.416;2023-05-20T12:01:55;102616.38;;;17.26;36.25
12666;BME280;58531;59.050;17.416;2023-05-20T12:04:22;102613.88;;;17.19;36.22
12666;BME280;58531;59.050;17.416;2023-05-20T12:06:50;102605.47;;;16.92;36.44
12666;BME280;58531;59.050;17.416;2023-05-20T12:09:18;102605.78;;;16.94;36.45
12666;BME280;58531;59.050;17.416;2023-05-20T12:11:44;102605.78;;;16.94;37.64
12666;BME280;58531;59.050;17.416;2023-05-20T12:14:11;102602.84;;;16.89;37.42
12666;BME280;58531;59.050;17.416;2023-05-20T12:16:38;102605.22;;;16.87;36.76
12666;BME280;58531;59.050;17.416;2023-05-20T12:19:05;102606.63;;;16.91;37.59
12666;BME280;58531;59.050;17.416;2023-05-20T12:21:32;102606.31;;;17.02;38.23
12666;BME280;58531;59.050;17.416;2023-05-20T12:24:01;102609.47;;;17.25;34.99
12666;BME280;58531;59.050;17.416;2023-05-20T12:26:30;102605.28;;;17.37;36.50
12666;BME280;58531;59.050;17.416;2023-05-20T12:28:57;102608.03;;;17.83;38.08
12666;BME280;58531;59.050;17.416;2023-05-20T12:31:24;102604.94;;;18.06;36.56
12666;BME280;58531;59.050;17.416;2023-05-20T12:33:51;102606.69;;;18.34;35.59
12666;BME280;58531;59.050;17.416;2023-05-20T12:36:17;102600.53;;;18.33;33.79
12666;BME280;58531;59.050;17.416;2023-05-20T12:38:44;102605.06;;;18.36;34.25
12666;BME280;58531;59.050;17.416;2023-05-20T12:41:13;102601.22;;;18.25;34.61
12666;BME280;58531;59.050;17.416;2023-05-20T12:43:40;102594.59;;;18.26;34.31